createdAt,value
2022-11-05T00:03:35.847Z,44.81
2022-11-05T00:07:17.780Z,44.10
2022-11-05T00:10:43.799Z,44.94
2022-11-05T00:14:25.786Z,47.57
2022-11-05T00:17:51.799Z,46.98
2022-11-05T00:21:38.799Z,42.25
2022-11-05T00:25:19.810Z,43.41
2022-11-05T00:28:45.772Z,41.48
2022-11-05T00:32:08.836Z,40.52
2022-11-05T00:35:34.758Z,41.44
2022-11-05T00:38:58.808Z,45.60
2022-11-05T00:42:40.805Z,40.86
2022-11-05T00:46:04.795Z,42.10
2022-11-05T00:49:38.823Z,42.95
2022-11-05T00:53:10.121Z,41.52
2022-11-05T00:56:34.848Z,41.63
2022-11-05T00:59:58.788Z,42.86
2022-11-05T01:03:25.828Z,45.35
2022-11-05T01:06:50.199Z,44.82
2022-11-05T01:10:15.010Z,43.79
2022-11-05T01:13:37.840Z,46.00
2022-11-05T01:17:01.815Z,45.08
2022-11-05T01:20:26.049Z,43.04
2022-11-05T01:23:50.705Z,42.89
2022-11-05T01:27:15.813Z,42.22
2022-11-05T01:30:39.907Z,42.56
2022-11-05T01:34:03.876Z,42.30
2022-11-05T01:37:29.440Z,44.49
2022-11-05T01:40:57.836Z,43.73
2022-11-05T01:44:14.423Z,42.45
2022-11-05T01:47:49.886Z,43.39
2022-11-05T01:51:17.734Z,44.05
2022-11-05T01:54:43.852Z,42.42
2022-11-05T01:58:09.824Z,44.12
2022-11-05T02:01:33.924Z,44.92
2022-11-05T02:05:01.840Z,44.32
2022-11-05T02:08:31.874Z,48.19
2022-11-05T02:11:55.846Z,49.71
2022-11-05T02:15:19.907Z,46.71
2022-11-05T02:18:55.818Z,46.16
2022-11-05T02:22:35.718Z,46.78
2022-11-05T02:26:38.752Z,48.62
2022-11-05T02:30:26.242Z,48.86
2022-11-05T02:34:10.856Z,49.57
2022-11-05T02:37:56.894Z,49.81
2022-11-05T02:41:27.896Z,51.10
2022-11-05T02:45:25.874Z,51.84
2022-11-05T02:48:58.848Z,52.24
2022-11-05T02:52:46.877Z,53.18
2022-11-05T02:56:16.849Z,53.61
2022-11-05T02:59:40.887Z,52.51
2022-11-05T03:03:03.930Z,51.99
2022-11-05T03:06:49.856Z,56.43
2022-11-05T03:10:30.874Z,56.98
2022-11-05T03:14:22.903Z,59.37
2022-11-05T03:18:10.887Z,57.74
2022-11-05T03:21:38.882Z,59.08
2022-11-05T03:25:05.900Z,58.77
2022-11-05T03:28:29.870Z,60.02
2022-11-05T03:31:54.900Z,61.02
2022-11-05T03:35:23.877Z,62.44
2022-11-05T03:38:49.903Z,63.78
2022-11-05T03:42:06.458Z,61.56
2022-11-05T03:45:29.908Z,60.31
2022-11-05T03:49:00.942Z,62.14
2022-11-05T03:52:30.917Z,63.14
2022-11-05T03:56:04.986Z,65.91
2022-11-05T03:59:28.888Z,68.62
2022-11-05T04:02:54.833Z,70.45
2022-11-05T04:06:40.715Z,63.82
2022-11-05T04:10:23.899Z,65.87
2022-11-05T04:13:47.887Z,63.66
2022-11-05T04:17:15.173Z,65.66
2022-11-05T04:20:56.890Z,67.64
2022-11-05T04:24:20.936Z,66.67
2022-11-05T04:27:44.584Z,67.81
2022-11-05T04:31:08.893Z,68.46
2022-11-05T04:34:32.926Z,68.01
2022-11-05T04:37:56.921Z,68.06
2022-11-05T04:41:32.325Z,71.65
2022-11-05T04:44:50.528Z,70.16
2022-11-05T04:48:08.945Z,70.20
2022-11-05T04:51:32.919Z,68.35
2022-11-05T04:54:56.948Z,70.27
2022-11-05T04:58:20.363Z,72.70
2022-11-05T05:01:44.963Z,71.89
2022-11-05T05:05:10.063Z,71.60
2022-11-05T05:08:33.926Z,71.34
2022-11-05T05:11:57.942Z,73.91
2022-11-05T05:15:23.961Z,71.60
2022-11-05T05:18:47.929Z,74.11
2022-11-05T05:22:12.292Z,74.87
2022-11-05T05:25:34.910Z,73.08
2022-11-05T05:28:59.952Z,72.03
2022-11-05T05:32:22.948Z,72.47
2022-11-05T05:35:46.948Z,74.85
2022-11-05T05:39:11.847Z,73.87
2022-11-05T05:42:42.719Z,74.18
2022-11-05T05:46:07.957Z,77.29
2022-11-05T05:49:32.296Z,78.22
2022-11-05T05:52:56.032Z,79.77
2022-11-05T05:56:22.939Z,83.24
2022-11-05T05:59:47.069Z,84.92
2022-11-05T06:03:14.376Z,86.17
2022-11-05T06:06:38.958Z,87.63
2022-11-05T06:10:03.946Z,89.63
2022-11-05T06:13:27.981Z,91.13
2022-11-05T06:16:50.943Z,92.02
2022-11-05T06:20:16.979Z,93.51
2022-11-05T06:23:41.972Z,95.88
2022-11-05T06:27:06.959Z,97.08
2022-11-05T06:30:32.095Z,96.38
2022-11-05T06:33:56.940Z,98.28
2022-11-05T06:37:21.009Z,97.85
2022-11-05T06:40:44.961Z,98.86
2022-11-05T06:44:07.968Z,99.16
2022-11-05T06:47:31.992Z,99.71
2022-11-05T06:50:59.959Z,99.12
2022-11-05T06:54:23.988Z,100.00
2022-11-05T06:57:52.942Z,100.00
2022-11-05T07:01:23.230Z,100.00
2022-11-05T07:04:46.952Z,100.00
2022-11-05T07:08:10.036Z,100.00
2022-11-05T07:11:34.036Z,100.00
2022-11-05T07:14:58.027Z,100.00
2022-11-05T07:18:23.047Z,100.00
2022-11-05T07:21:47.006Z,100.00
2022-11-05T07:25:12.960Z,100.00
2022-11-05T07:28:36.035Z,100.00
2022-11-05T07:32:00.281Z,100.00
2022-11-05T07:35:24.002Z,100.00
2022-11-05T07:38:47.959Z,100.00
2022-11-05T07:42:12.023Z,100.00
2022-11-05T07:45:36.340Z,100.00
2022-11-05T07:48:59.999Z,100.00
2022-11-05T07:52:23.951Z,100.00
2022-11-05T07:55:47.994Z,100.00
2022-11-05T07:59:12.608Z,100.00
2022-11-05T08:02:36.154Z,100.00
2022-11-05T08:06:01.995Z,100.00
2022-11-05T08:09:25.023Z,100.00
2022-11-05T08:12:48.997Z,100.00
2022-11-05T08:16:13.018Z,100.00
2022-11-05T08:19:36.004Z,100.00
2022-11-05T08:23:00.018Z,100.00
2022-11-05T08:26:25.022Z,100.00
2022-11-05T08:29:48.993Z,100.00
2022-11-05T08:33:31.022Z,100.00
2022-11-05T08:36:54.982Z,100.00
2022-11-05T08:40:19.036Z,100.00
2022-11-05T08:43:41.984Z,100.00
2022-11-05T08:47:05.025Z,100.00
2022-11-05T08:50:22.578Z,100.00
2022-11-05T08:53:40.042Z,100.00
2022-11-05T08:57:02.977Z,100.00
2022-11-05T09:00:29.039Z,100.00
2022-11-05T09:03:54.016Z,100.00
2022-11-05T09:07:17.051Z,100.00
2022-11-05T09:10:42.005Z,100.00
2022-11-05T09:14:05.054Z,100.00
2022-11-05T09:17:32.078Z,100.00
2022-11-05T09:20:57.017Z,100.00
2022-11-05T09:24:21.677Z,100.00
2022-11-05T09:27:46.018Z,100.00
2022-11-05T09:31:10.043Z,100.00
2022-11-05T09:34:32.998Z,100.00
2022-11-05T09:38:00.805Z,100.00
2022-11-05T09:41:37.046Z,100.00
2022-11-05T09:45:04.059Z,100.00
2022-11-05T09:48:31.063Z,100.00
2022-11-05T09:51:50.252Z,100.00
2022-11-05T09:55:07.039Z,100.00
2022-11-05T09:58:38.629Z,100.00
2022-11-05T10:02:02.242Z,100.00
2022-11-05T10:05:30.907Z,100.00
2022-11-05T10:08:58.067Z,100.00
2022-11-05T10:12:48.024Z,100.00
2022-11-05T10:16:19.065Z,100.00
2022-11-05T10:19:59.015Z,100.00
2022-11-05T10:23:35.081Z,100.00
2022-11-05T10:26:58.020Z,100.00
2022-11-05T10:30:22.107Z,100.00
2022-11-05T10:34:01.395Z,100.00
2022-11-05T10:37:25.207Z,100.00
2022-11-05T10:40:58.047Z,100.00
2022-11-05T10:44:53.065Z,100.00
2022-11-05T10:48:26.072Z,100.00
2022-11-05T10:51:50.065Z,100.00
2022-11-05T10:55:16.079Z,100.00
2022-11-05T10:58:50.070Z,100.00
2022-11-05T11:02:25.624Z,100.00
2022-11-05T11:05:55.057Z,100.00
2022-11-05T11:09:24.095Z,100.00
2022-11-05T11:12:53.045Z,100.00
2022-11-05T11:16:35.106Z,100.00
2022-11-05T11:20:00.732Z,100.00
2022-11-05T11:23:31.082Z,100.00
2022-11-05T11:26:56.095Z,100.00
2022-11-05T11:30:21.083Z,100.00
2022-11-05T11:33:44.088Z,100.00
2022-11-05T11:37:22.075Z,100.00
2022-11-05T11:40:50.098Z,100.00
2022-11-05T11:44:35.090Z,100.00
2022-11-05T11:48:02.102Z,100.00
2022-11-05T11:51:48.050Z,100.00
2022-11-05T11:55:37.613Z,100.00
2022-11-05T11:59:09.090Z,100.00
2022-11-05T12:03:07.485Z,100.00
2022-11-05T12:06:47.100Z,100.00
2022-11-05T12:10:18.076Z,100.00
2022-11-05T12:13:45.112Z,100.00
2022-11-05T12:17:41.067Z,100.00
2022-11-05T12:21:48.074Z,100.00
2022-11-05T12:25:09.080Z,100.00
2022-11-05T12:32:37.134Z,100.00
2022-11-05T12:36:30.135Z,100.00
2022-11-05T12:39:53.152Z,100.00
2022-11-05T12:43:41.116Z,100.00
2022-11-05T12:47:33.101Z,100.00
2022-11-05T12:51:06.062Z,100.00
2022-11-05T12:54:47.140Z,100.00
2022-11-05T12:58:22.284Z,100.00
2022-11-05T13:01:55.232Z,100.00
2022-11-05T13:05:31.132Z,100.00
2022-11-05T13:09:12.155Z,100.00
2022-11-05T13:12:38.107Z,100.00
2022-11-05T13:16:12.119Z,100.00
2022-11-05T13:19:40.113Z,100.00
2022-11-05T13:23:17.134Z,100.00
2022-11-05T13:26:53.159Z,100.00
2022-11-05T13:30:22.137Z,100.00
2022-11-05T13:34:00.111Z,100.00
2022-11-05T13:37:42.167Z,100.00
2022-11-05T13:41:49.130Z,100.00
2022-11-05T13:45:13.152Z,100.00
2022-11-05T13:48:53.170Z,100.00
2022-11-05T13:52:53.178Z,100.00
2022-11-05T13:56:20.709Z,100.00
2022-11-05T14:00:00.171Z,100.00
2022-11-05T14:03:33.114Z,100.00
2022-11-05T14:06:56.160Z,100.00
2022-11-05T14:10:56.067Z,100.00
2022-11-05T14:14:23.187Z,100.00
2022-11-05T14:18:10.146Z,100.00
2022-11-05T14:21:42.125Z,100.00
2022-11-05T14:25:06.755Z,100.00
2022-11-05T14:28:49.527Z,100.00
2022-11-05T14:32:13.760Z,100.00
2022-11-05T14:35:58.151Z,100.00
2022-11-05T14:39:39.135Z,100.00
2022-11-05T14:43:36.737Z,100.00
2022-11-05T14:47:04.192Z,100.00
2022-11-05T14:50:57.173Z,100.00
2022-11-05T14:54:23.186Z,100.00
2022-11-05T14:57:59.166Z,100.00
2022-11-05T15:01:30.623Z,100.00
2022-11-05T15:04:55.148Z,100.00
2022-11-05T15:08:47.189Z,100.00
2022-11-05T15:12:11.148Z,100.00
2022-11-05T15:15:38.163Z,100.00
2022-11-05T15:19:02.145Z,100.00
2022-11-05T15:22:58.227Z,100.00
2022-11-05T15:26:31.199Z,100.00
2022-11-05T15:29:56.704Z,100.00
2022-11-05T15:33:37.137Z,100.00
2022-11-05T15:37:35.233Z,100.00
2022-11-05T15:40:58.145Z,100.00
2022-11-05T15:44:21.189Z,100.00
2022-11-05T15:47:47.153Z,100.00
2022-11-05T15:51:10.232Z,100.00
2022-11-05T15:54:38.989Z,100.00
2022-11-05T15:58:10.194Z,100.00
2022-11-05T16:01:40.301Z,100.00
2022-11-05T16:05:04.247Z,100.00
2022-11-05T16:08:37.821Z,100.00
2022-11-05T16:12:01.225Z,100.00
2022-11-05T16:15:26.198Z,100.00
2022-11-05T16:18:52.223Z,100.00
2022-11-05T16:22:18.203Z,100.00
2022-11-05T16:25:55.315Z,100.00
2022-11-05T16:29:42.204Z,100.00
2022-11-05T16:33:06.201Z,100.00
2022-11-05T16:36:29.553Z,100.00
2022-11-05T16:39:54.910Z,100.00
2022-11-05T16:43:37.004Z,100.00
2022-11-05T16:47:04.741Z,100.00
2022-11-05T16:50:32.209Z,100.00
2022-11-05T16:53:56.191Z,100.00
2022-11-05T16:57:27.233Z,100.00
2022-11-05T17:00:52.220Z,100.00
2022-11-05T17:04:16.244Z,100.00
2022-11-05T17:07:41.497Z,100.00
2022-11-05T17:11:05.240Z,100.00
2022-11-05T17:14:28.233Z,100.00
2022-11-05T17:17:52.235Z,100.00
2022-11-05T17:21:16.229Z,100.00
2022-11-05T17:24:40.268Z,100.00
2022-11-05T17:28:03.217Z,100.00
2022-11-05T17:31:28.240Z,100.00
2022-11-05T17:34:51.232Z,100.00
2022-11-05T17:38:15.248Z,100.00
2022-11-05T17:41:39.538Z,100.00
2022-11-05T17:45:03.231Z,100.00
2022-11-05T17:48:27.241Z,100.00
2022-11-05T17:51:51.251Z,100.00
2022-11-05T17:55:24.229Z,100.00
2022-11-05T17:58:49.273Z,100.00
2022-11-05T18:02:18.312Z,100.00
2022-11-05T18:05:42.262Z,100.00
2022-11-05T18:09:06.246Z,100.00
2022-11-05T18:12:29.264Z,100.00
2022-11-05T18:15:53.264Z,100.00
2022-11-05T18:19:16.247Z,100.00
2022-11-05T18:22:48.267Z,100.00
2022-11-05T18:26:14.225Z,100.00
2022-11-05T18:29:39.077Z,100.00
2022-11-05T18:33:03.251Z,100.00
2022-11-05T18:36:39.253Z,100.00
2022-11-05T18:40:06.860Z,100.00
2022-11-05T18:43:30.265Z,100.00
2022-11-05T18:47:00.094Z,100.00
2022-11-05T18:50:24.254Z,100.00
2022-11-05T18:53:48.247Z,100.00
2022-11-05T18:57:12.298Z,100.00
2022-11-05T19:00:36.238Z,100.00
2022-11-05T19:03:54.382Z,100.00
2022-11-05T19:07:18.263Z,100.00
2022-11-05T19:10:42.278Z,100.00
2022-11-05T19:14:06.271Z,100.00
2022-11-05T19:17:30.631Z,100.00
2022-11-05T19:20:54.278Z,100.00
2022-11-05T19:24:18.301Z,100.00
2022-11-05T19:27:42.249Z,100.00
2022-11-05T19:31:06.654Z,100.00
2022-11-05T19:34:30.301Z,100.00
2022-11-05T19:37:54.281Z,100.00
2022-11-05T19:41:26.298Z,100.00
2022-11-05T19:44:51.303Z,100.00
2022-11-05T19:48:19.396Z,100.00
2022-11-05T19:51:46.287Z,100.00
2022-11-05T19:55:12.164Z,100.00
2022-11-05T19:58:36.281Z,100.00
2022-11-05T20:01:59.444Z,100.00
2022-11-05T20:05:23.290Z,100.00
2022-11-05T20:09:19.525Z,100.00
2022-11-05T20:12:31.284Z,100.00
2022-11-05T20:15:57.251Z,100.00
2022-11-05T20:19:24.275Z,100.00
2022-11-05T20:22:48.327Z,100.00
2022-11-05T20:26:12.310Z,100.00
2022-11-05T20:29:36.329Z,100.00
2022-11-05T20:33:00.266Z,100.00
2022-11-05T20:36:27.322Z,100.00
2022-11-05T20:39:52.294Z,100.00
2022-11-05T20:43:17.249Z,100.00
2022-11-05T20:46:41.318Z,100.00
2022-11-05T20:50:06.316Z,100.00
2022-11-05T20:53:30.902Z,100.00
2022-11-05T20:56:54.330Z,100.00
2022-11-05T21:00:20.302Z,100.00
2022-11-05T21:03:44.977Z,100.00
2022-11-05T21:07:09.302Z,100.00
2022-11-05T21:10:33.974Z,100.00
2022-11-05T21:13:58.349Z,100.00
2022-11-05T21:17:23.298Z,100.00
2022-11-05T21:20:46.364Z,100.00
2022-11-05T21:24:11.313Z,100.00
2022-11-05T21:27:36.471Z,100.00
2022-11-05T21:31:02.295Z,100.00
2022-11-05T21:34:27.447Z,100.00
2022-11-05T21:37:51.521Z,100.00
2022-11-05T21:41:20.365Z,100.00
2022-11-05T21:44:44.335Z,100.00
2022-11-05T21:48:08.314Z,100.00
2022-11-05T21:51:50.983Z,100.00
2022-11-05T21:55:34.364Z,100.00
2022-11-05T21:59:11.385Z,100.00
2022-11-05T22:02:31.480Z,100.00
2022-11-05T22:05:55.332Z,100.00
2022-11-05T22:09:19.351Z,100.00
2022-11-05T22:12:42.346Z,100.00
2022-11-05T22:16:12.357Z,100.00
2022-11-05T22:19:36.341Z,100.00
2022-11-05T22:23:01.371Z,100.00
2022-11-05T22:26:25.353Z,100.00
2022-11-05T22:29:48.365Z,100.00
2022-11-05T22:33:13.340Z,100.00
2022-11-05T22:36:37.355Z,100.00
2022-11-05T22:40:01.332Z,100.00
2022-11-05T22:43:25.369Z,100.00
2022-11-05T22:46:48.710Z,100.00
2022-11-05T22:50:14.463Z,100.00
2022-11-05T22:53:37.379Z,100.00
2022-11-05T22:57:01.352Z,100.00
2022-11-05T23:00:31.368Z,100.00
2022-11-05T23:03:57.323Z,100.00
2022-11-05T23:07:39.418Z,100.00
2022-11-05T23:11:37.427Z,100.00
2022-11-05T23:15:01.392Z,100.00
2022-11-05T23:18:43.393Z,100.00
2022-11-05T23:22:25.401Z,100.00
2022-11-05T23:25:50.942Z,100.00
2022-11-05T23:29:15.381Z,100.00
2022-11-05T23:32:39.437Z,100.00
2022-11-05T23:36:21.354Z,100.00
2022-11-05T23:39:44.400Z,100.00
2022-11-05T23:43:26.407Z,100.00
2022-11-05T23:47:08.464Z,100.00
2022-11-05T23:50:35.617Z,100.00
2022-11-05T23:54:03.409Z,100.00
2022-11-05T23:57:27.016Z,100.00
